createdAt,value
2023-10-18T00:00:30.173Z,63.67
2023-10-18T00:03:19.832Z,63.97
2023-10-18T00:05:48.744Z,63.81
2023-10-18T00:08:18.585Z,64.02
2023-10-18T00:10:48.171Z,64.28
2023-10-18T00:13:16.721Z,64.17
2023-10-18T00:15:45.236Z,64.19
2023-10-18T00:18:13.869Z,64.29
2023-10-18T00:20:42.424Z,64.33
2023-10-18T00:23:11.921Z,64.27
2023-10-18T00:25:40.411Z,64.27
2023-10-18T00:28:11.659Z,64.19
2023-10-18T00:30:40.664Z,64.33
2023-10-18T00:33:09.349Z,64.43
2023-10-18T00:35:38.124Z,64.42
2023-10-18T00:38:10.899Z,64.38
2023-10-18T00:40:42.131Z,64.54
2023-10-18T00:43:28.628Z,64.60
2023-10-18T00:45:57.394Z,64.52
2023-10-18T00:48:31.791Z,64.62
2023-10-18T00:51:00.998Z,64.84
2023-10-18T00:53:34.976Z,64.68
2023-10-18T00:56:08.501Z,64.88
2023-10-18T00:58:40.441Z,64.80
2023-10-18T01:01:12.828Z,64.85
2023-10-18T01:03:52.375Z,64.84
2023-10-18T01:06:28.670Z,64.88
2023-10-18T01:08:57.856Z,64.78
2023-10-18T01:11:30.238Z,64.84
2023-10-18T01:14:02.151Z,64.95
2023-10-18T01:16:36.592Z,64.89
2023-10-18T01:19:10.512Z,64.97
2023-10-18T01:21:47.407Z,64.96
2023-10-18T01:24:16.459Z,65.21
2023-10-18T01:26:45.763Z,64.95
2023-10-18T01:29:15.230Z,64.96
2023-10-18T01:31:47.660Z,65.11
2023-10-18T01:34:16.643Z,65.08
2023-10-18T01:36:45.558Z,64.92
2023-10-18T01:39:22.253Z,64.95
2023-10-18T01:41:52.707Z,64.96
2023-10-18T01:44:37.269Z,65.07
2023-10-18T01:47:10.463Z,65.03
2023-10-18T01:49:57.032Z,65.09
2023-10-18T01:52:26.395Z,65.13
2023-10-18T01:54:55.637Z,65.14
2023-10-18T01:57:24.219Z,65.22
2023-10-18T01:59:52.801Z,65.15
2023-10-18T02:02:22.395Z,65.15
2023-10-18T02:04:54.453Z,64.96
2023-10-18T02:07:23.818Z,65.04
2023-10-18T02:09:59.842Z,65.00
2023-10-18T02:12:30.334Z,64.94
2023-10-18T02:14:58.712Z,65.07
2023-10-18T02:17:28.848Z,65.18
2023-10-18T02:20:01.345Z,65.04
2023-10-18T02:22:30.141Z,65.27
2023-10-18T02:24:58.726Z,65.17
2023-10-18T02:27:30.145Z,65.34
2023-10-18T02:29:58.723Z,65.25
2023-10-18T02:32:34.678Z,65.07
2023-10-18T02:35:06.301Z,65.27
2023-10-18T02:37:35.057Z,65.40
2023-10-18T02:40:10.421Z,65.37
2023-10-18T02:42:39.360Z,65.43
2023-10-18T02:45:15.477Z,65.25
2023-10-18T02:47:44.377Z,65.43
2023-10-18T02:50:16.282Z,65.44
2023-10-18T02:52:47.769Z,65.52
2023-10-18T02:55:20.494Z,65.62
2023-10-18T02:57:49.896Z,65.48
2023-10-18T03:00:19.288Z,65.44
2023-10-18T03:02:50.311Z,65.55
2023-10-18T03:05:21.838Z,65.60
2023-10-18T03:07:50.510Z,65.66
2023-10-18T03:10:29.433Z,65.66
2023-10-18T03:12:59.865Z,65.80
2023-10-18T03:15:29.949Z,65.74
2023-10-18T03:17:58.617Z,65.92
2023-10-18T03:20:28.365Z,65.94
2023-10-18T03:22:57.215Z,65.95
2023-10-18T03:25:28.637Z,66.08
2023-10-18T03:28:06.268Z,66.04
2023-10-18T03:30:46.956Z,66.19
2023-10-18T03:33:17.096Z,66.21
2023-10-18T03:36:20.166Z,66.00
2023-10-18T03:39:01.661Z,65.98
2023-10-18T03:41:34.685Z,66.00
2023-10-18T03:44:08.509Z,65.87
2023-10-18T03:46:40.988Z,65.97
2023-10-18T03:49:12.152Z,65.95
2023-10-18T03:51:42.122Z,65.91
2023-10-18T03:54:14.807Z,65.97
2023-10-18T03:56:46.471Z,66.08
2023-10-18T03:59:21.830Z,65.95
2023-10-18T04:02:05.923Z,66.06
2023-10-18T04:04:46.097Z,66.13
2023-10-18T04:07:25.933Z,66.28
2023-10-18T04:09:55.772Z,66.20
2023-10-18T04:12:24.551Z,66.17
2023-10-18T04:15:16.552Z,66.40
2023-10-18T04:17:45.078Z,66.50
2023-10-18T04:20:22.614Z,66.43
2023-10-18T04:22:54.461Z,66.44
2023-10-18T04:25:28.948Z,66.58
2023-10-18T04:27:59.558Z,66.60
2023-10-18T04:30:32.490Z,66.52
2023-10-18T04:33:21.602Z,66.53
2023-10-18T04:35:54.131Z,66.71
2023-10-18T04:38:31.655Z,66.77
2023-10-18T04:41:02.952Z,66.72
2023-10-18T04:43:34.337Z,66.38
2023-10-18T04:46:16.496Z,66.21
2023-10-18T04:48:52.398Z,66.15
2023-10-18T04:51:29.102Z,66.41
2023-10-18T04:53:59.236Z,66.51
2023-10-18T04:56:39.831Z,66.53
2023-10-18T04:59:12.965Z,66.66
2023-10-18T05:01:54.144Z,66.64
2023-10-18T05:04:34.254Z,66.64
2023-10-18T05:07:16.866Z,66.68
2023-10-18T05:09:46.821Z,66.82
2023-10-18T05:12:18.179Z,66.77
2023-10-18T05:15:07.364Z,66.74
2023-10-18T05:17:44.276Z,66.92
2023-10-18T05:20:26.978Z,66.92
2023-10-18T05:23:00.613Z,66.94
2023-10-18T05:25:35.813Z,66.86
2023-10-18T05:28:11.112Z,66.85
2023-10-18T05:30:59.355Z,66.95
2023-10-18T05:33:49.290Z,66.97
2023-10-18T05:36:20.934Z,66.84
2023-10-18T05:38:50.043Z,66.82
2023-10-18T05:41:29.890Z,66.96
2023-10-18T05:44:02.887Z,67.02
2023-10-18T05:46:36.927Z,67.01
2023-10-18T05:49:15.467Z,67.03
2023-10-18T05:52:13.687Z,67.00
2023-10-18T05:54:45.515Z,67.24
2023-10-18T05:57:18.123Z,67.21
2023-10-18T05:59:50.547Z,67.16
2023-10-18T06:02:25.281Z,67.10
2023-10-18T06:04:58.113Z,67.14
2023-10-18T06:07:28.413Z,67.23
2023-10-18T06:09:57.111Z,67.25
2023-10-18T06:12:32.187Z,67.21
2023-10-18T06:15:15.569Z,67.16
2023-10-18T06:17:49.419Z,67.21
2023-10-18T06:20:31.221Z,67.41
2023-10-18T06:23:18.962Z,67.43
2023-10-18T06:25:53.427Z,67.25
2023-10-18T06:28:22.911Z,66.91
2023-10-18T06:30:58.465Z,66.64
2023-10-18T06:33:36.840Z,66.38
2023-10-18T06:36:14.654Z,65.97
2023-10-18T06:38:44.880Z,65.81
2023-10-18T06:41:20.345Z,65.48
2023-10-18T06:43:50.722Z,64.77
2023-10-18T06:46:34.406Z,64.88
2023-10-18T06:49:12.658Z,65.38
2023-10-18T06:51:51.553Z,65.61
2023-10-18T06:54:33.794Z,65.64
2023-10-18T06:57:31.644Z,65.46
2023-10-18T07:00:00.791Z,65.51
2023-10-18T07:02:29.496Z,65.20
2023-10-18T07:04:59.884Z,65.39
2023-10-18T07:07:30.401Z,65.49
2023-10-18T07:10:00.172Z,65.05
2023-10-18T07:12:29.376Z,65.18
2023-10-18T07:15:02.153Z,64.63
2023-10-18T07:17:31.618Z,64.76
2023-10-18T07:20:00.201Z,65.10
2023-10-18T07:22:45.583Z,65.24
2023-10-18T07:25:22.165Z,65.03
2023-10-18T07:27:52.210Z,65.24
2023-10-18T07:30:20.700Z,65.10
2023-10-18T07:32:49.707Z,64.46
2023-10-18T07:35:32.934Z,64.37
2023-10-18T07:38:01.456Z,64.38
2023-10-18T07:40:37.585Z,64.50
2023-10-18T07:43:09.313Z,64.37
2023-10-18T07:45:37.958Z,64.35
2023-10-18T07:48:07.221Z,63.87
2023-10-18T07:50:41.803Z,60.26
2023-10-18T07:53:13.870Z,59.84
2023-10-18T07:55:44.977Z,58.98
2023-10-18T07:58:19.638Z,61.88
2023-10-18T08:01:03.832Z,61.98
2023-10-18T08:03:33.762Z,60.03
2023-10-18T08:06:08.385Z,58.72
2023-10-18T08:08:37.975Z,59.93
2023-10-18T08:11:13.384Z,61.32
2023-10-18T08:13:46.700Z,60.72
2023-10-18T08:16:21.880Z,60.21
2023-10-18T08:19:00.902Z,59.36
2023-10-18T08:21:38.930Z,58.61
2023-10-18T08:24:20.876Z,60.26
2023-10-18T08:26:49.865Z,59.07
2023-10-18T08:29:19.136Z,58.84
2023-10-18T08:31:57.837Z,59.08
2023-10-18T08:34:26.990Z,59.44
2023-10-18T08:37:06.024Z,58.43
2023-10-18T08:39:34.672Z,57.33
2023-10-18T08:42:17.908Z,57.99
2023-10-18T08:44:46.873Z,57.31
2023-10-18T08:47:18.893Z,57.26
2023-10-18T08:49:56.214Z,57.20
2023-10-18T08:52:25.597Z,56.43
2023-10-18T08:54:56.719Z,57.22
2023-10-18T08:57:38.917Z,56.34
2023-10-18T09:00:26.729Z,56.80
2023-10-18T09:02:56.027Z,56.73
2023-10-18T09:05:27.063Z,57.22
2023-10-18T09:08:07.084Z,55.61
2023-10-18T09:10:43.416Z,55.75
2023-10-18T09:13:18.724Z,55.64
2023-10-18T09:16:00.236Z,55.85
2023-10-18T09:18:35.927Z,55.78
2023-10-18T09:21:14.209Z,55.91
2023-10-18T09:23:43.071Z,54.50
2023-10-18T09:26:23.053Z,55.44
2023-10-18T09:32:34.323Z,54.89
2023-10-18T09:35:15.722Z,54.48
2023-10-18T09:38:01.709Z,55.01
2023-10-18T09:40:44.977Z,54.69
2023-10-18T09:43:28.271Z,54.50
2023-10-18T09:46:20.945Z,54.48
2023-10-18T09:49:00.116Z,54.20
2023-10-18T09:51:37.934Z,54.35
2023-10-18T09:54:17.095Z,53.97
2023-10-18T09:57:00.664Z,53.88
2023-10-18T10:00:07.687Z,53.55
2023-10-18T10:02:54.740Z,53.40
2023-10-18T10:05:27.506Z,53.15
2023-10-18T10:08:13.017Z,53.00
2023-10-18T10:11:02.779Z,52.99
2023-10-18T10:13:41.715Z,53.08
2023-10-18T10:16:28.942Z,52.59
2023-10-18T10:19:21.716Z,52.59
2023-10-18T10:22:25.730Z,52.57
2023-10-18T10:25:42.723Z,52.60
2023-10-18T10:29:11.738Z,52.53
2023-10-18T10:32:10.798Z,52.37
2023-10-18T10:34:48.227Z,51.79
2023-10-18T10:37:26.960Z,51.84
2023-10-18T10:40:42.837Z,52.03
2023-10-18T10:43:27.987Z,51.69
2023-10-18T10:46:03.933Z,51.58
2023-10-18T10:48:55.337Z,51.63
2023-10-18T10:51:49.299Z,51.39
2023-10-18T10:54:32.431Z,51.52
2023-10-18T10:57:12.892Z,51.74
2023-10-18T10:59:59.643Z,51.74
2023-10-18T11:02:42.692Z,51.74
2023-10-18T11:05:26.895Z,51.61
2023-10-18T11:07:58.167Z,51.38
2023-10-18T11:10:41.926Z,51.39
2023-10-18T11:13:16.293Z,51.38
2023-10-18T11:15:52.306Z,51.51
2023-10-18T11:18:36.308Z,51.64
2023-10-18T11:21:20.640Z,51.37
2023-10-18T11:24:04.408Z,51.39
2023-10-18T11:26:42.599Z,51.48
2023-10-18T11:29:14.650Z,51.47
2023-10-18T11:31:46.872Z,51.30
2023-10-18T11:34:23.245Z,51.36
2023-10-18T11:36:52.065Z,51.34
2023-10-18T11:39:20.855Z,51.30
2023-10-18T11:41:54.883Z,51.37
2023-10-18T11:44:33.301Z,51.38
2023-10-18T11:47:20.787Z,51.36
2023-10-18T11:49:58.778Z,51.24
2023-10-18T11:52:28.013Z,51.23
2023-10-18T11:55:16.416Z,51.27
2023-10-18T11:57:47.889Z,51.29
2023-10-18T12:00:25.883Z,51.28
2023-10-18T12:03:17.265Z,51.10
2023-10-18T12:05:46.112Z,51.16
2023-10-18T12:08:14.994Z,50.96
2023-10-18T12:10:43.557Z,51.02
2023-10-18T12:13:15.095Z,50.96
2023-10-18T12:15:44.155Z,50.86
2023-10-18T12:18:15.577Z,50.99
2023-10-18T12:20:44.845Z,51.09
2023-10-18T12:23:17.129Z,51.12
2023-10-18T12:25:47.128Z,51.14
2023-10-18T12:28:30.711Z,51.13
2023-10-18T12:31:02.749Z,51.16
2023-10-18T12:33:34.852Z,51.12
2023-10-18T12:36:09.527Z,51.13
2023-10-18T12:38:40.400Z,51.04
2023-10-18T12:41:19.712Z,50.98
2023-10-18T12:43:49.041Z,50.99
2023-10-18T12:46:17.930Z,50.95
2023-10-18T12:48:46.988Z,50.93
2023-10-18T12:51:15.928Z,50.94
2023-10-18T12:53:49.493Z,50.93
2023-10-18T12:56:39.585Z,50.96
2023-10-18T12:59:10.876Z,50.89
2023-10-18T13:01:47.879Z,50.89
2023-10-18T13:04:20.117Z,51.00
2023-10-18T13:06:51.876Z,51.02
2023-10-18T13:09:20.868Z,51.02
2023-10-18T13:12:02.218Z,50.97
2023-10-18T13:14:35.580Z,51.03
2023-10-18T13:17:07.211Z,51.08
2023-10-18T13:19:39.868Z,51.07
2023-10-18T13:22:48.883Z,51.09
2023-10-18T13:25:27.374Z,51.11
2023-10-18T13:27:56.242Z,51.06
2023-10-18T13:30:54.204Z,51.10
2023-10-18T13:33:23.089Z,51.01
2023-10-18T13:35:52.662Z,51.05
2023-10-18T13:38:25.258Z,51.04
2023-10-18T13:40:54.316Z,51.00
2023-10-18T13:43:26.014Z,50.98
2023-10-18T13:46:01.876Z,50.98
2023-10-18T13:48:31.659Z,50.99
2023-10-18T13:51:00.460Z,50.96
2023-10-18T13:53:30.345Z,50.97
2023-10-18T13:56:00.703Z,51.09
2023-10-18T13:58:33.013Z,51.05
2023-10-18T14:01:06.948Z,51.00
2023-10-18T14:03:39.388Z,50.97
2023-10-18T14:06:11.837Z,51.03
2023-10-18T14:08:42.845Z,50.92
2023-10-18T14:11:14.635Z,50.96
2023-10-18T14:13:48.624Z,50.99
2023-10-18T14:16:20.534Z,51.05
2023-10-18T14:18:50.079Z,51.10
2023-10-18T14:21:20.969Z,51.07
2023-10-18T14:23:54.154Z,51.05
2023-10-18T14:26:26.364Z,51.16
2023-10-18T14:28:59.679Z,51.16
2023-10-18T14:31:28.761Z,51.27
2023-10-18T14:34:04.280Z,51.25
2023-10-18T14:36:34.154Z,51.22
2023-10-18T14:39:04.831Z,51.22
2023-10-18T14:41:34.329Z,51.26
2023-10-18T14:44:03.473Z,51.32
2023-10-18T14:46:32.917Z,51.28
2023-10-18T14:49:02.141Z,51.28
2023-10-18T14:51:31.191Z,51.43
2023-10-18T14:53:59.737Z,51.52
2023-10-18T14:56:28.409Z,51.58
2023-10-18T14:58:58.258Z,51.53
2023-10-18T15:01:28.129Z,51.63
2023-10-18T15:03:58.206Z,51.70
2023-10-18T15:06:26.966Z,51.62
2023-10-18T15:08:56.713Z,51.58
2023-10-18T15:11:25.405Z,51.61
2023-10-18T15:13:54.904Z,51.58
2023-10-18T15:16:31.299Z,51.72
2023-10-18T15:19:00.127Z,51.91
2023-10-18T15:21:31.828Z,52.00
2023-10-18T15:24:00.390Z,51.94
2023-10-18T15:26:31.328Z,51.93
2023-10-18T15:29:01.643Z,51.91
2023-10-18T15:31:30.420Z,51.93
2023-10-18T15:33:59.750Z,51.99
2023-10-18T15:36:30.201Z,52.06
2023-10-18T15:38:58.855Z,52.04
2023-10-18T15:41:28.254Z,52.04
2023-10-18T15:44:02.035Z,52.14
2023-10-18T15:46:38.700Z,52.18
2023-10-18T15:49:08.398Z,52.32
2023-10-18T15:51:37.464Z,52.15
2023-10-18T15:54:12.240Z,52.31
2023-10-18T15:56:41.234Z,52.28
2023-10-18T15:59:10.343Z,52.40
2023-10-18T16:01:51.426Z,52.31
2023-10-18T16:04:24.702Z,52.39
2023-10-18T16:06:57.512Z,52.43
2023-10-18T16:09:29.895Z,52.59
2023-10-18T16:12:04.162Z,52.51
2023-10-18T16:14:32.853Z,52.59
2023-10-18T16:17:06.101Z,52.79
2023-10-18T16:19:36.656Z,52.94
2023-10-18T16:22:05.496Z,52.80
2023-10-18T16:24:34.343Z,52.89
2023-10-18T16:27:05.892Z,52.92
2023-10-18T16:29:35.084Z,53.05
2023-10-18T16:32:04.125Z,53.16
2023-10-18T16:35:22.739Z,53.15
2023-10-18T16:37:52.163Z,53.25
2023-10-18T16:40:21.143Z,53.32
2023-10-18T16:42:50.033Z,53.25
2023-10-18T16:45:21.429Z,53.31
2023-10-18T16:47:50.268Z,53.51
2023-10-18T16:50:20.525Z,53.59
2023-10-18T16:52:49.190Z,53.70
2023-10-18T16:55:19.456Z,53.76
2023-10-18T16:57:52.772Z,53.73
2023-10-18T17:00:21.501Z,53.87
2023-10-18T17:03:06.341Z,53.98
2023-10-18T17:06:18.504Z,53.99
2023-10-18T17:09:10.496Z,54.25
2023-10-18T17:11:56.089Z,54.23
2023-10-18T17:14:41.415Z,54.35
2023-10-18T17:17:30.681Z,54.20
2023-10-18T17:20:28.828Z,54.39
2023-10-18T17:23:18.903Z,54.53
2023-10-18T17:26:28.149Z,54.54
2023-10-18T17:29:25.313Z,54.58
2023-10-18T17:32:23.999Z,54.57
2023-10-18T17:35:24.441Z,54.69
2023-10-18T17:38:27.186Z,54.66
2023-10-18T17:41:25.854Z,54.78
2023-10-18T17:44:05.714Z,54.76
2023-10-18T17:46:36.595Z,54.84
2023-10-18T17:49:05.723Z,54.94
2023-10-18T17:51:34.345Z,55.06
2023-10-18T17:54:06.162Z,55.01
2023-10-18T17:56:36.613Z,55.11
2023-10-18T17:59:11.267Z,54.99
2023-10-18T18:01:39.833Z,55.15
2023-10-18T18:04:10.413Z,55.15
2023-10-18T18:06:39.081Z,55.36
2023-10-18T18:09:07.929Z,55.36
2023-10-18T18:11:37.251Z,55.42
2023-10-18T18:14:07.668Z,55.48
2023-10-18T18:16:36.984Z,55.45
2023-10-18T18:19:06.715Z,55.53
2023-10-18T18:21:36.913Z,55.48
2023-10-18T18:24:06.111Z,55.55
2023-10-18T18:26:46.338Z,55.72
2023-10-18T18:29:21.066Z,55.83
2023-10-18T18:31:49.716Z,55.85
2023-10-18T18:34:21.812Z,55.97
2023-10-18T18:36:50.655Z,56.12
2023-10-18T18:39:22.362Z,56.22
2023-10-18T18:41:52.168Z,56.34
2023-10-18T18:44:20.853Z,56.54
2023-10-18T18:46:49.430Z,56.36
2023-10-18T18:49:18.093Z,56.52
2023-10-18T18:51:46.595Z,56.71
2023-10-18T18:54:16.285Z,56.82
2023-10-18T18:56:44.897Z,56.83
2023-10-18T18:59:13.471Z,56.80
2023-10-18T19:01:43.258Z,56.89
2023-10-18T19:04:13.432Z,57.12
2023-10-18T19:06:42.367Z,57.17
2023-10-18T19:09:11.058Z,57.14
2023-10-18T19:11:39.717Z,57.31
2023-10-18T19:14:08.857Z,57.20
2023-10-18T19:16:37.847Z,57.07
2023-10-18T19:19:06.409Z,57.26
2023-10-18T19:21:35.442Z,57.10
2023-10-18T19:24:04.708Z,57.31
2023-10-18T19:26:33.477Z,57.31
2023-10-18T19:29:02.047Z,57.49
2023-10-18T19:31:32.965Z,57.62
2023-10-18T19:34:01.513Z,57.63
2023-10-18T19:36:30.439Z,57.61
2023-10-18T19:39:00.640Z,57.72
2023-10-18T19:41:29.280Z,57.76
2023-10-18T19:43:58.210Z,57.80
2023-10-18T19:46:31.497Z,58.00
2023-10-18T19:49:01.127Z,57.87
2023-10-18T19:51:31.220Z,58.12
2023-10-18T19:54:02.392Z,57.95
2023-10-18T19:56:31.037Z,58.04
2023-10-18T19:58:59.668Z,57.94
2023-10-18T20:01:29.001Z,58.16
2023-10-18T20:03:58.088Z,58.18
2023-10-18T20:06:28.899Z,58.42
2023-10-18T20:08:58.621Z,58.60
2023-10-18T20:11:27.279Z,58.38
2023-10-18T20:13:55.802Z,58.48
2023-10-18T20:16:26.807Z,58.31
2023-10-18T20:18:55.297Z,58.22
2023-10-18T20:21:27.429Z,58.25
2023-10-18T20:23:56.962Z,58.38
2023-10-18T20:26:26.124Z,58.59
2023-10-18T20:28:54.789Z,58.60
2023-10-18T20:31:25.164Z,58.55
2023-10-18T20:33:54.417Z,58.57
2023-10-18T20:36:23.058Z,58.76
2023-10-18T20:38:51.728Z,58.77
2023-10-18T20:41:20.364Z,58.66
2023-10-18T20:43:49.169Z,58.70
2023-10-18T20:46:21.010Z,58.60
2023-10-18T20:48:55.938Z,58.54
2023-10-18T20:51:25.220Z,58.77
2023-10-18T20:53:54.318Z,58.91
2023-10-18T20:56:24.114Z,58.83
2023-10-18T20:58:56.959Z,58.90
2023-10-18T21:01:36.146Z,58.96
2023-10-18T21:04:07.526Z,58.82
2023-10-18T21:06:40.254Z,58.83
2023-10-18T21:09:14.288Z,58.95
2023-10-18T21:11:44.694Z,59.16
2023-10-18T21:14:17.973Z,59.10
2023-10-18T21:16:47.437Z,59.18
2023-10-18T21:19:16.576Z,59.02
2023-10-18T21:21:45.111Z,59.13
2023-10-18T21:24:13.610Z,58.94
2023-10-18T21:26:42.726Z,58.96
2023-10-18T21:29:11.351Z,59.00
2023-10-18T21:31:41.274Z,59.15
2023-10-18T21:34:10.164Z,59.17
2023-10-18T21:36:38.686Z,59.49
2023-10-18T21:39:07.901Z,59.34
2023-10-18T21:41:38.749Z,59.32
2023-10-18T21:44:07.324Z,59.29
2023-10-18T21:46:36.161Z,59.34
2023-10-18T21:49:04.822Z,59.52
2023-10-18T21:51:33.560Z,59.56
2023-10-18T21:54:02.781Z,59.59
2023-10-18T21:56:31.251Z,59.78
2023-10-18T21:59:00.747Z,59.77
2023-10-18T22:01:42.020Z,59.51
2023-10-18T22:04:11.071Z,59.66
2023-10-18T22:06:40.563Z,59.59
2023-10-18T22:09:25.627Z,59.54
2023-10-18T22:11:55.490Z,59.62
2023-10-18T22:14:27.307Z,59.88
2023-10-18T22:16:56.824Z,59.80
2023-10-18T22:19:31.991Z,59.81
2023-10-18T22:22:13.430Z,59.73
2023-10-18T22:24:48.844Z,60.02
2023-10-18T22:27:18.793Z,59.96
2023-10-18T22:29:51.836Z,59.67
2023-10-18T22:32:26.169Z,59.70
2023-10-18T22:34:55.206Z,59.71
2023-10-18T22:37:24.133Z,59.97
2023-10-18T22:40:00.066Z,60.03
2023-10-18T22:42:40.468Z,60.01
2023-10-18T22:45:11.136Z,60.14
2023-10-18T22:47:41.898Z,60.13
2023-10-18T22:50:34.273Z,60.21
2023-10-18T22:53:31.634Z,60.11
2023-10-18T22:56:01.496Z,60.22
2023-10-18T22:58:31.335Z,60.28
2023-10-18T23:01:02.599Z,60.30
2023-10-18T23:03:33.610Z,60.30
2023-10-18T23:06:09.097Z,60.32
2023-10-18T23:08:46.080Z,60.22
2023-10-18T23:11:37.264Z,60.36
2023-10-18T23:14:25.167Z,60.42
2023-10-18T23:16:56.200Z,60.39
2023-10-18T23:19:27.825Z,60.32
2023-10-18T23:22:17.727Z,60.41
2023-10-18T23:24:49.295Z,60.66
2023-10-18T23:27:37.736Z,60.55
2023-10-18T23:30:34.111Z,60.68
2023-10-18T23:33:11.682Z,60.66
2023-10-18T23:35:49.424Z,60.66
2023-10-18T23:38:36.846Z,60.63
2023-10-18T23:41:05.877Z,60.56
2023-10-18T23:43:47.273Z,60.47
2023-10-18T23:46:27.938Z,60.49
2023-10-18T23:49:16.452Z,60.64
2023-10-18T23:51:55.302Z,60.72
2023-10-18T23:54:24.379Z,60.65
2023-10-18T23:56:52.892Z,60.55
2023-10-18T23:59:30.908Z,60.87
